createdAt,value
2023-02-24T00:05:05.623Z,467.00
2023-02-24T00:06:05.648Z,466.00
2023-02-24T00:53:07.310Z,459.00
2023-02-24T00:57:06.477Z,460.00
2023-02-24T00:58:06.515Z,459.00
2023-02-24T00:59:06.513Z,459.00
2023-02-24T01:00:06.602Z,459.00
2023-02-24T01:01:06.605Z,458.00
2023-02-24T01:02:06.647Z,458.00
2023-02-24T01:03:06.669Z,457.00
2023-02-24T01:04:06.754Z,456.00
2023-02-24T01:05:06.764Z,455.00
2023-02-24T01:06:06.767Z,455.00
2023-02-24T01:07:06.813Z,453.00
2023-02-24T01:08:06.858Z,451.00
2023-02-24T01:09:06.852Z,450.00
2023-02-24T01:10:06.896Z,449.00
2023-02-24T01:11:06.942Z,452.00
2023-02-24T01:12:07.047Z,452.00
2023-02-24T01:13:07.021Z,452.00
2023-02-24T01:14:07.023Z,451.00
2023-02-24T01:15:07.104Z,456.00
2023-02-24T01:16:07.179Z,456.00
2023-02-24T01:17:07.157Z,455.00
2023-02-24T01:18:07.175Z,455.00
2023-02-24T01:19:07.191Z,451.00
2023-02-24T01:20:07.235Z,452.00
2023-02-24T01:21:07.241Z,449.00
2023-02-24T01:22:07.289Z,446.00
2023-02-24T01:23:07.309Z,445.00
2023-02-24T01:24:07.370Z,444.00
2023-02-24T01:25:07.382Z,448.00
2023-02-24T01:26:07.431Z,445.00
2023-02-24T01:27:07.423Z,445.00
2023-02-24T01:28:07.455Z,444.00
2023-02-24T01:29:07.469Z,445.00
2023-02-24T01:30:07.528Z,444.00
2023-02-24T01:31:07.629Z,444.00
2023-02-24T01:32:07.782Z,443.00
2023-02-24T01:33:07.820Z,443.00
2023-02-24T01:34:07.605Z,441.00
2023-02-24T01:35:07.641Z,439.00
2023-02-24T01:36:07.653Z,439.00
2023-02-24T01:37:07.688Z,443.00
2023-02-24T01:38:07.727Z,443.00
2023-02-24T01:39:07.776Z,446.00
2023-02-24T01:40:07.791Z,447.00
2023-02-24T01:41:07.841Z,449.00
2023-02-24T01:42:07.910Z,447.00
2023-02-24T01:43:07.913Z,448.00
2023-02-24T01:44:07.929Z,448.00
2023-02-24T01:45:07.966Z,448.00
2023-02-24T01:46:07.986Z,448.00
2023-02-24T01:47:08.012Z,448.00
2023-02-24T01:48:08.020Z,447.00
2023-02-24T01:49:08.052Z,447.00
2023-02-24T01:50:08.104Z,447.00
2023-02-24T01:51:08.126Z,446.00
2023-02-24T01:52:08.175Z,446.00
2023-02-24T01:53:08.196Z,446.00
2023-02-24T01:54:08.195Z,442.00
2023-02-24T01:55:08.262Z,440.00
2023-02-24T01:56:08.258Z,439.00
2023-02-24T01:57:08.327Z,437.00
2023-02-24T01:58:08.379Z,436.00
2023-02-24T01:59:08.362Z,437.00
2023-02-24T02:00:08.413Z,437.00
2023-02-24T02:01:08.423Z,438.00
2023-02-24T02:02:08.640Z,440.00
2023-02-24T02:03:08.499Z,442.00
2023-02-24T02:04:08.509Z,443.00
2023-02-24T02:05:08.525Z,444.00
2023-02-24T02:06:08.600Z,446.00
2023-02-24T02:07:08.636Z,444.00
2023-02-24T02:08:08.641Z,444.00
2023-02-24T02:09:08.676Z,447.00
2023-02-24T02:10:08.707Z,448.00
2023-02-24T02:11:08.736Z,449.00
2023-02-24T02:12:08.831Z,449.00
2023-02-24T02:13:08.784Z,448.00
2023-02-24T02:14:08.815Z,449.00
2023-02-24T02:15:08.868Z,452.00
2023-02-24T02:16:08.903Z,451.00
2023-02-24T02:17:08.910Z,447.00
2023-02-24T02:18:08.950Z,448.00
2023-02-24T02:19:09.008Z,452.00
2023-02-24T02:20:09.014Z,449.00
2023-02-24T02:21:09.051Z,450.00
2023-02-24T02:22:09.069Z,450.00
2023-02-24T02:23:09.108Z,448.00
2023-02-24T02:24:09.146Z,450.00
2023-02-24T02:25:09.202Z,450.00
2023-02-24T02:26:09.187Z,451.00
2023-02-24T02:27:09.223Z,449.00
2023-02-24T02:28:09.282Z,447.00
2023-02-24T02:29:09.321Z,447.00
2023-02-24T02:30:09.336Z,447.00
2023-02-24T02:31:09.453Z,447.00
2023-02-24T02:32:09.493Z,446.00
2023-02-24T02:33:09.441Z,448.00
2023-02-24T02:34:09.448Z,452.00
2023-02-24T02:35:09.526Z,457.00
2023-02-24T02:36:09.549Z,457.00
2023-02-24T02:37:09.589Z,459.00
2023-02-24T02:38:09.633Z,459.00
2023-02-24T02:39:09.661Z,460.00
2023-02-24T02:40:09.693Z,458.00
2023-02-24T02:41:09.712Z,458.00
2023-02-24T02:42:09.789Z,459.00
2023-02-24T02:43:09.811Z,460.00
2023-02-24T02:44:09.831Z,460.00
2023-02-24T02:45:09.880Z,457.00
2023-02-24T02:46:10.019Z,456.00
2023-02-24T02:47:09.965Z,458.00
2023-02-24T02:48:10.011Z,458.00
2023-02-24T02:49:10.026Z,460.00
2023-02-24T02:50:10.071Z,460.00
2023-02-24T02:51:10.137Z,463.00
2023-02-24T02:52:10.185Z,462.00
2023-02-24T02:53:10.186Z,460.00
2023-02-24T02:54:10.312Z,459.00
2023-02-24T02:55:10.275Z,458.00
2023-02-24T02:56:10.310Z,459.00
2023-02-24T02:57:10.359Z,459.00
2023-02-24T02:58:10.425Z,459.00
2023-02-24T02:59:10.457Z,458.00
2023-02-24T03:00:10.525Z,458.00
2023-02-24T03:01:10.538Z,456.00
2023-02-24T03:02:10.593Z,454.00
2023-02-24T03:03:10.613Z,454.00
2023-02-24T03:04:10.670Z,454.00
2023-02-24T03:05:10.722Z,453.00
2023-02-24T03:06:10.735Z,453.00
2023-02-24T03:07:10.831Z,450.00
2023-02-24T03:08:10.840Z,451.00
2023-02-24T03:09:10.905Z,451.00
2023-02-24T03:10:10.971Z,452.00
2023-02-24T03:11:10.989Z,453.00
2023-02-24T03:12:11.033Z,453.00
2023-02-24T03:13:11.079Z,455.00
2023-02-24T03:14:11.143Z,455.00
2023-02-24T03:15:11.188Z,455.00
2023-02-24T03:16:11.264Z,455.00
2023-02-24T03:17:11.311Z,458.00
2023-02-24T03:18:11.346Z,458.00
2023-02-24T03:19:11.433Z,459.00
2023-02-24T03:20:11.433Z,462.00
2023-02-24T03:21:11.476Z,463.00
2023-02-24T03:22:11.518Z,462.00
2023-02-24T03:23:11.603Z,465.00
2023-02-24T03:24:11.649Z,465.00
2023-02-24T03:25:11.685Z,467.00
2023-02-24T03:26:11.737Z,468.00
2023-02-24T03:27:11.784Z,467.00
2023-02-24T03:28:11.842Z,463.00
2023-02-24T03:29:11.865Z,462.00
2023-02-24T03:30:11.912Z,460.00
2023-02-24T03:31:11.989Z,461.00
2023-02-24T03:32:12.112Z,462.00
2023-02-24T03:33:12.120Z,462.00
2023-02-24T03:34:12.081Z,461.00
2023-02-24T03:35:12.144Z,462.00
2023-02-24T03:36:12.189Z,461.00
2023-02-24T03:37:12.267Z,461.00
2023-02-24T03:38:12.313Z,461.00
2023-02-24T03:39:12.489Z,462.00
2023-02-24T03:40:12.339Z,462.00
2023-02-24T03:41:12.434Z,462.00
2023-02-24T03:42:12.509Z,464.00
2023-02-24T03:43:14.005Z,464.00
2023-02-24T03:44:12.509Z,464.00
2023-02-24T03:45:12.494Z,462.00
2023-02-24T03:46:12.591Z,462.00
2023-02-24T03:47:12.485Z,461.00
2023-02-24T03:48:12.510Z,464.00
2023-02-24T03:49:12.483Z,464.00
2023-02-24T03:50:12.455Z,464.00
2023-02-24T03:51:12.481Z,465.00
2023-02-24T03:52:12.492Z,465.00
2023-02-24T03:53:12.438Z,464.00
2023-02-24T03:54:12.440Z,465.00
2023-02-24T03:55:12.424Z,466.00
2023-02-24T03:56:12.444Z,464.00
2023-02-24T03:57:12.414Z,464.00
2023-02-24T03:58:12.419Z,463.00
2023-02-24T03:59:12.415Z,465.00
2023-02-24T04:00:12.396Z,464.00
2023-02-24T04:01:12.366Z,467.00
2023-02-24T04:02:12.403Z,469.00
2023-02-24T04:03:12.370Z,465.00
2023-02-24T04:04:12.369Z,464.00
2023-02-24T04:05:12.379Z,464.00
2023-02-24T04:06:12.362Z,463.00
2023-02-24T04:07:12.364Z,462.00
2023-02-24T04:08:12.314Z,463.00
2023-02-24T04:09:12.329Z,463.00
2023-02-24T04:10:12.333Z,464.00
2023-02-24T04:11:12.298Z,466.00
2023-02-24T04:12:12.298Z,467.00
2023-02-24T04:13:12.302Z,466.00
2023-02-24T04:14:12.260Z,465.00
2023-02-24T04:15:12.260Z,465.00
2023-02-24T06:07:36.617Z,488.00
2023-02-24T06:08:36.578Z,487.00
2023-02-24T06:09:36.574Z,484.00
2023-02-24T06:10:36.570Z,484.00
2023-02-24T06:11:36.593Z,483.00
2023-02-24T06:12:36.575Z,485.00
2023-02-24T06:13:36.524Z,486.00
2023-02-24T06:14:36.583Z,488.00
2023-02-24T06:15:36.504Z,489.00
2023-02-24T06:16:36.610Z,491.00
2023-02-24T06:17:36.541Z,492.00
2023-02-24T06:18:36.543Z,493.00
2023-02-24T06:19:36.490Z,495.00
2023-02-24T06:20:36.472Z,493.00
2023-02-24T06:21:36.512Z,491.00
2023-02-24T06:22:36.515Z,491.00
2023-02-24T06:23:36.455Z,491.00
2023-02-24T06:24:36.470Z,492.00
2023-02-24T06:25:36.469Z,493.00
2023-02-24T06:26:36.486Z,492.00
2023-02-24T06:33:36.756Z,487.00
2023-02-24T06:40:37.398Z,566.00
2023-02-24T06:43:36.786Z,600.00
2023-02-24T06:45:36.350Z,715.00
2023-02-24T06:48:36.776Z,751.00
2023-02-24T06:49:37.382Z,748.00
2023-02-24T07:41:35.948Z,527.00
2023-02-24T07:47:35.886Z,517.00
2023-02-24T07:48:35.863Z,516.00
2023-02-24T07:49:36.005Z,515.00
2023-02-24T07:50:35.870Z,514.00
2023-02-24T07:51:35.863Z,514.00
2023-02-24T07:52:35.864Z,513.00
2023-02-24T07:53:35.899Z,511.00
2023-02-24T07:54:35.889Z,510.00
2023-02-24T07:55:35.850Z,512.00
2023-02-24T07:56:35.786Z,514.00
2023-02-24T07:57:35.855Z,514.00
2023-02-24T07:58:35.803Z,516.00
2023-02-24T07:59:35.820Z,513.00
2023-02-24T08:00:35.777Z,513.00
2023-02-24T08:01:35.801Z,511.00
2023-02-24T08:02:35.837Z,509.00
2023-02-24T08:03:35.779Z,507.00
2023-02-24T08:04:35.744Z,507.00
2023-02-24T08:05:35.784Z,506.00
2023-02-24T08:06:35.760Z,505.00
2023-02-24T08:07:35.765Z,504.00
2023-02-24T08:08:35.726Z,502.00
2023-02-24T08:09:35.805Z,500.00
2023-02-24T08:10:35.721Z,499.00
2023-02-24T08:11:35.784Z,498.00
2023-02-24T08:12:35.727Z,497.00
2023-02-24T08:13:35.718Z,494.00
2023-02-24T08:14:35.847Z,494.00
2023-02-24T08:15:35.745Z,497.00
2023-02-24T08:16:35.687Z,497.00
2023-02-24T08:17:35.672Z,497.00
2023-02-24T08:18:35.668Z,497.00
2023-02-24T08:29:35.593Z,704.00
2023-02-24T08:34:35.544Z,799.00
2023-02-24T08:39:35.830Z,934.00
2023-02-24T08:41:35.526Z,1069.00
2023-02-24T08:42:35.565Z,1181.00
2023-02-24T08:43:35.595Z,1029.00
2023-02-24T08:45:35.684Z,722.00
2023-02-24T08:46:35.725Z,727.00
2023-02-24T08:48:35.812Z,658.00
2023-02-24T08:49:35.882Z,603.00
2023-02-24T08:50:35.845Z,612.00
2023-02-24T08:51:35.857Z,623.00
2023-02-24T08:52:35.833Z,621.00
2023-02-24T08:53:35.887Z,656.00
2023-02-24T08:54:35.840Z,638.00
2023-02-24T08:55:35.899Z,625.00
2023-02-24T09:00:36.149Z,696.00
2023-02-24T09:01:36.200Z,718.00
2023-02-24T09:04:36.366Z,710.00
2023-02-24T09:07:36.479Z,797.00
2023-02-24T09:08:36.539Z,847.00
2023-02-24T09:09:36.556Z,828.00
2023-02-24T09:10:38.824Z,767.00
2023-02-24T09:11:36.613Z,782.00
2023-02-24T09:12:36.596Z,781.00
2023-02-24T09:13:36.606Z,785.00
2023-02-24T09:14:36.787Z,793.00
2023-02-24T09:15:36.610Z,802.00
2023-02-24T09:16:36.623Z,821.00
2023-02-24T09:17:36.556Z,787.00
2023-02-24T09:18:36.571Z,754.00
2023-02-24T09:19:36.593Z,764.00
2023-02-24T09:20:36.553Z,764.00
2023-02-24T09:21:36.560Z,693.00
2023-02-24T09:22:36.549Z,726.00
2023-02-24T09:23:36.523Z,773.00
2023-02-24T09:24:36.547Z,762.00
2023-02-24T09:25:36.543Z,793.00
2023-02-24T09:26:36.524Z,758.00
2023-02-24T09:27:36.555Z,789.00
2023-02-24T09:28:36.555Z,778.00
2023-02-24T09:29:36.488Z,818.00
2023-02-24T09:30:36.600Z,776.00
2023-02-24T09:31:37.820Z,820.00
2023-02-24T09:32:36.567Z,794.00
2023-02-24T09:33:37.470Z,789.00
2023-02-24T09:34:36.858Z,813.00
2023-02-24T09:35:36.489Z,889.00
2023-02-24T09:36:36.454Z,883.00
2023-02-24T09:37:36.464Z,894.00
2023-02-24T09:38:36.414Z,894.00
2023-02-24T09:39:36.875Z,923.00
2023-02-24T09:40:36.443Z,962.00
2023-02-24T09:41:36.405Z,981.00
2023-02-24T09:42:37.324Z,1057.00
2023-02-24T09:43:36.379Z,1081.00
2023-02-24T09:44:36.393Z,1100.00
2023-02-24T09:45:36.487Z,1125.00
2023-02-24T09:46:36.587Z,1144.00
2023-02-24T09:47:36.381Z,1157.00
2023-02-24T09:48:36.368Z,1172.00
2023-02-24T09:49:36.834Z,1171.00
2023-02-24T09:50:59.629Z,1172.00
2023-02-24T09:51:37.332Z,1191.00
2023-02-24T09:52:36.368Z,1229.00
2023-02-24T09:53:36.333Z,1230.00
2023-02-24T09:54:36.335Z,1257.00
2023-02-24T09:55:36.301Z,1211.00
2023-02-24T09:56:36.310Z,1210.00
2023-02-24T09:57:36.378Z,1191.00
2023-02-24T09:58:43.689Z,1194.00
2023-02-24T09:59:37.311Z,1075.00
2023-02-24T10:00:36.314Z,1079.00
2023-02-24T10:01:36.347Z,944.00
2023-02-24T10:02:36.401Z,1024.00
2023-02-24T10:03:36.333Z,926.00
2023-02-24T10:04:36.378Z,929.00
2023-02-24T10:05:36.246Z,935.00
2023-02-24T10:06:36.251Z,872.00
2023-02-24T10:07:36.257Z,851.00
2023-02-24T10:08:36.215Z,830.00
2023-02-24T10:09:36.345Z,844.00
2023-02-24T10:10:36.254Z,859.00
2023-02-24T10:11:36.183Z,795.00
2023-02-24T10:12:36.191Z,839.00
2023-02-24T10:13:36.182Z,792.00
2023-02-24T10:14:43.030Z,794.00
2023-02-24T10:15:37.192Z,761.00
2023-02-24T10:16:36.203Z,731.00
2023-02-24T10:17:36.141Z,670.00
2023-02-24T10:18:36.236Z,667.00
2023-02-24T10:19:36.354Z,665.00
2023-02-24T10:20:36.158Z,681.00
2023-02-24T10:21:36.146Z,750.00
2023-02-24T10:22:36.134Z,758.00
2023-02-24T10:23:36.121Z,814.00
2023-02-24T10:24:36.447Z,748.00
2023-02-24T10:25:36.242Z,674.00
2023-02-24T10:26:36.143Z,724.00
2023-02-24T10:27:36.207Z,665.00
2023-02-24T10:28:36.234Z,757.00
2023-02-24T10:29:36.096Z,706.00
2023-02-24T10:30:36.279Z,624.00
2023-02-24T10:31:36.262Z,649.00
2023-02-24T10:32:36.124Z,705.00
2023-02-24T10:33:36.092Z,682.00
2023-02-24T10:34:36.124Z,866.00
2023-02-24T10:35:36.364Z,721.00
2023-02-24T10:36:36.224Z,755.00
2023-02-24T10:37:36.002Z,809.00
2023-02-24T10:38:36.032Z,811.00
2023-02-24T10:39:35.985Z,807.00
2023-02-24T10:40:36.013Z,820.00
2023-02-24T10:41:36.027Z,831.00
2023-02-24T10:42:35.981Z,860.00
2023-02-24T10:43:36.144Z,888.00
2023-02-24T10:44:36.123Z,933.00
2023-02-24T10:45:35.960Z,987.00
2023-02-24T10:46:41.417Z,875.00
2023-02-24T10:47:36.949Z,880.00
2023-02-24T10:48:43.076Z,854.00
2023-02-24T10:49:36.932Z,768.00
2023-02-24T10:50:39.361Z,745.00
2023-02-24T10:51:36.919Z,753.00
2023-02-24T10:52:35.908Z,707.00
2023-02-24T10:53:35.944Z,667.00
2023-02-24T10:54:35.974Z,669.00
2023-02-24T10:55:35.970Z,665.00
2023-02-24T10:56:36.003Z,668.00
2023-02-24T10:57:36.103Z,795.00
2023-02-24T10:58:36.071Z,738.00
2023-02-24T10:59:36.190Z,706.00
2023-02-24T11:00:36.108Z,707.00
2023-02-24T11:01:36.210Z,708.00
2023-02-24T11:02:36.202Z,706.00
2023-02-24T11:03:36.289Z,698.00
2023-02-24T11:04:36.241Z,697.00
2023-02-24T11:05:36.233Z,701.00
2023-02-24T11:06:36.264Z,706.00
2023-02-24T11:07:36.318Z,704.00
2023-02-24T11:08:36.498Z,724.00
2023-02-24T11:09:36.382Z,640.00
2023-02-24T11:10:36.351Z,659.00
2023-02-24T11:14:36.446Z,747.00
2023-02-24T11:15:36.472Z,681.00
2023-02-24T11:16:36.479Z,677.00
2023-02-24T11:17:36.479Z,683.00
2023-02-24T11:18:36.510Z,680.00
2023-02-24T11:19:36.498Z,687.00
2023-02-24T11:20:48.342Z,827.00
2023-02-24T11:21:37.485Z,684.00
2023-02-24T11:22:36.531Z,669.00
2023-02-24T11:23:36.465Z,668.00
2023-02-24T11:24:36.483Z,647.00
2023-02-24T11:25:36.681Z,652.00
2023-02-24T11:26:36.543Z,693.00
2023-02-24T11:27:36.606Z,682.00
2023-02-24T11:28:36.660Z,690.00
2023-02-24T11:29:36.672Z,717.00
2023-02-24T11:30:36.902Z,727.00
2023-02-24T11:31:36.835Z,785.00
2023-02-24T11:32:36.953Z,785.00
2023-02-24T11:33:36.792Z,737.00
2023-02-24T11:34:36.804Z,765.00
2023-02-24T11:35:36.941Z,830.00
2023-02-24T11:36:36.958Z,977.00
2023-02-24T11:37:36.861Z,965.00
2023-02-24T11:38:36.893Z,953.00
2023-02-24T11:39:36.895Z,949.00
2023-02-24T11:40:36.895Z,947.00
2023-02-24T11:41:36.912Z,950.00
2023-02-24T11:42:36.899Z,949.00
2023-02-24T11:43:36.926Z,949.00
2023-02-24T11:44:36.901Z,954.00
2023-02-24T11:46:36.977Z,925.00
2023-02-24T11:47:36.990Z,912.00
2023-02-24T11:48:36.928Z,916.00
2023-02-24T11:49:36.969Z,919.00
2023-02-24T11:50:36.956Z,918.00
2023-02-24T11:51:36.976Z,913.00
2023-02-24T12:08:37.099Z,877.00
2023-02-24T12:09:37.127Z,876.00
2023-02-24T12:10:37.417Z,873.00
2023-02-24T12:11:37.167Z,871.00
2023-02-24T12:12:37.175Z,865.00
2023-02-24T12:13:37.191Z,859.00
2023-02-24T12:14:37.256Z,853.00
2023-02-24T12:15:37.203Z,853.00
2023-02-24T12:16:37.268Z,852.00
2023-02-24T12:17:37.225Z,851.00
2023-02-24T12:18:37.212Z,848.00
2023-02-24T12:19:37.237Z,841.00
2023-02-24T12:21:37.255Z,831.00
2023-02-24T12:22:37.237Z,830.00
2023-02-24T12:23:37.282Z,827.00
2023-02-24T12:24:37.264Z,825.00
2023-02-24T12:25:37.263Z,820.00
2023-02-24T12:26:37.260Z,817.00
2023-02-24T12:27:37.902Z,812.00
2023-02-24T12:28:37.292Z,811.00
2023-02-24T12:29:37.287Z,810.00
2023-02-24T12:30:39.081Z,808.00
2023-02-24T12:31:37.416Z,806.00
2023-02-24T12:32:37.748Z,807.00
2023-02-24T12:33:37.328Z,808.00
2023-02-24T12:34:37.376Z,804.00
2023-02-24T12:35:37.428Z,801.00
2023-02-24T12:36:37.405Z,799.00
2023-02-24T12:37:37.407Z,800.00
2023-02-24T12:38:37.393Z,799.00
2023-02-24T12:39:37.371Z,800.00
2023-02-24T12:40:37.393Z,801.00
2023-02-24T12:41:37.544Z,798.00
2023-02-24T12:42:37.517Z,794.00
2023-02-24T12:43:37.387Z,796.00
2023-02-24T12:44:37.408Z,796.00
2023-02-24T12:45:37.565Z,792.00
2023-02-24T12:46:37.404Z,792.00
2023-02-24T12:47:37.427Z,789.00
2023-02-24T12:48:37.421Z,786.00
2023-02-24T12:49:37.417Z,786.00
2023-02-24T12:50:37.545Z,785.00
2023-02-24T12:51:37.451Z,782.00
2023-02-24T12:52:37.440Z,779.00
2023-02-24T12:53:37.462Z,780.00
2023-02-24T12:54:37.458Z,779.00
2023-02-24T12:55:37.619Z,778.00
2023-02-24T12:56:37.469Z,773.00
2023-02-24T12:57:37.478Z,770.00
2023-02-24T12:58:37.619Z,767.00
2023-02-24T12:59:37.510Z,764.00
2023-02-24T13:00:37.624Z,762.00
2023-02-24T13:01:37.604Z,761.00
2023-02-24T13:02:37.577Z,762.00
2023-02-24T13:03:37.524Z,761.00
2023-02-24T13:04:37.531Z,763.00
2023-02-24T13:05:37.549Z,764.00
2023-02-24T13:06:37.553Z,763.00
2023-02-24T13:07:37.551Z,761.00
2023-02-24T13:08:38.428Z,760.00
2023-02-24T13:09:37.561Z,757.00
2023-02-24T13:10:37.562Z,754.00
2023-02-24T13:11:37.534Z,752.00
2023-02-24T13:12:37.550Z,748.00
2023-02-24T13:13:37.586Z,746.00
2023-02-24T13:14:37.533Z,748.00
2023-02-24T13:15:37.550Z,746.00
2023-02-24T13:16:37.681Z,743.00
2023-02-24T13:17:37.562Z,741.00
2023-02-24T13:18:37.573Z,739.00
2023-02-24T13:19:37.565Z,740.00
2023-02-24T13:20:37.577Z,739.00
2023-02-24T13:21:37.559Z,738.00
2023-02-24T13:22:37.565Z,737.00
2023-02-24T13:23:37.593Z,739.00
2023-02-24T13:24:37.605Z,737.00
2023-02-24T13:25:37.604Z,733.00
2023-02-24T13:26:37.564Z,733.00
2023-02-24T13:27:37.607Z,732.00
2023-02-24T13:28:37.586Z,733.00
2023-02-24T13:29:37.607Z,733.00
2023-02-24T13:30:37.628Z,731.00
2023-02-24T13:31:37.675Z,727.00
2023-02-24T13:32:37.779Z,727.00
2023-02-24T13:33:37.627Z,724.00
2023-02-24T13:34:37.635Z,721.00
2023-02-24T13:35:37.637Z,721.00
2023-02-24T13:36:37.619Z,719.00
2023-02-24T13:37:37.599Z,718.00
2023-02-24T13:38:37.638Z,715.00
2023-02-24T13:39:37.634Z,712.00
2023-02-24T13:40:37.649Z,712.00
2023-02-24T13:41:37.679Z,712.00
2023-02-24T13:42:37.658Z,714.00
2023-02-24T13:43:37.694Z,713.00
2023-02-24T13:44:37.673Z,712.00
2023-02-24T13:45:37.735Z,707.00
2023-02-24T13:46:37.718Z,706.00
2023-02-24T13:47:37.659Z,708.00
2023-02-24T13:48:37.663Z,706.00
2023-02-24T13:49:37.648Z,705.00
2023-02-24T13:50:37.676Z,705.00
2023-02-24T13:51:37.711Z,703.00
2023-02-24T13:52:37.694Z,702.00
2023-02-24T13:53:37.692Z,701.00
2023-02-24T13:54:37.696Z,701.00
2023-02-24T13:55:37.682Z,702.00
2023-02-24T13:56:37.728Z,700.00
2023-02-24T13:57:37.682Z,701.00
2023-02-24T13:58:37.686Z,699.00
2023-02-24T13:59:38.435Z,698.00
2023-02-24T14:00:37.686Z,695.00
2023-02-24T14:01:37.783Z,696.00
2023-02-24T14:02:37.746Z,696.00
2023-02-24T14:03:37.725Z,697.00
2023-02-24T14:04:37.697Z,697.00
2023-02-24T14:05:37.681Z,698.00
2023-02-24T14:06:37.900Z,699.00
2023-02-24T14:07:37.732Z,695.00
2023-02-24T14:08:37.678Z,693.00
2023-02-24T14:09:37.673Z,689.00
2023-02-24T14:10:37.648Z,709.00
2023-02-24T14:11:37.660Z,713.00
2023-02-24T14:12:37.636Z,710.00
2023-02-24T14:13:37.675Z,708.00
2023-02-24T14:14:37.666Z,698.00
2023-02-24T14:15:37.688Z,689.00
2023-02-24T14:16:37.649Z,686.00
2023-02-24T14:17:37.618Z,684.00
2023-02-24T14:18:37.639Z,682.00
2023-02-24T14:19:37.633Z,676.00
2023-02-24T14:20:37.669Z,670.00
2023-02-24T14:21:37.653Z,670.00
2023-02-24T14:22:37.635Z,671.00
2023-02-24T14:23:37.654Z,673.00
2023-02-24T14:24:37.669Z,673.00
2023-02-24T14:25:37.636Z,671.00
2023-02-24T14:26:37.624Z,668.00
2023-02-24T14:27:37.624Z,666.00
2023-02-24T14:28:37.585Z,664.00
2023-02-24T14:29:43.818Z,661.00
2023-02-24T14:30:38.617Z,662.00
2023-02-24T14:31:37.781Z,662.00
2023-02-24T14:32:37.631Z,663.00
2023-02-24T14:33:37.543Z,662.00
2023-02-24T14:34:37.582Z,659.00
2023-02-24T14:35:37.573Z,660.00
2023-02-24T14:36:37.962Z,659.00
2023-02-24T14:37:37.562Z,657.00
2023-02-24T14:38:37.569Z,654.00
2023-02-24T14:39:37.556Z,651.00
2023-02-24T14:40:37.501Z,652.00
2023-02-24T14:41:37.549Z,652.00
2023-02-24T14:42:37.535Z,651.00
2023-02-24T14:43:37.498Z,650.00
2023-02-24T14:44:37.496Z,653.00
2023-02-24T14:45:37.507Z,654.00
2023-02-24T14:46:37.506Z,653.00
2023-02-24T14:47:37.458Z,653.00
2023-02-24T14:48:37.487Z,652.00
2023-02-24T14:49:37.484Z,652.00
2023-02-24T14:50:37.497Z,648.00
2023-02-24T14:51:37.469Z,645.00
2023-02-24T14:52:37.451Z,645.00
2023-02-24T14:53:37.437Z,639.00
2023-02-24T14:54:37.446Z,637.00
2023-02-24T14:55:37.483Z,636.00
2023-02-24T14:56:37.430Z,636.00
2023-02-24T14:57:37.416Z,635.00
2023-02-24T14:58:37.399Z,632.00
2023-02-24T14:59:37.380Z,630.00
2023-02-24T15:00:37.395Z,627.00
2023-02-24T15:01:37.418Z,625.00
2023-02-24T15:02:37.389Z,624.00
2023-02-24T15:03:37.439Z,623.00
2023-02-24T15:04:37.385Z,624.00
2023-02-24T15:05:37.383Z,624.00
2023-02-24T15:06:37.337Z,624.00
2023-02-24T15:07:37.350Z,622.00
2023-02-24T15:08:37.328Z,621.00
2023-02-24T15:09:37.321Z,619.00
2023-02-24T15:10:37.328Z,620.00
2023-02-24T15:11:37.339Z,620.00
2023-02-24T15:12:37.327Z,617.00
2023-02-24T15:13:37.286Z,616.00
2023-02-24T15:14:37.296Z,615.00
2023-02-24T15:15:37.379Z,616.00
2023-02-24T15:16:37.370Z,615.00
2023-02-24T15:17:37.307Z,617.00
2023-02-24T15:18:37.261Z,618.00
2023-02-24T15:19:37.248Z,618.00
2023-02-24T15:20:37.256Z,619.00
2023-02-24T15:21:37.267Z,617.00
2023-02-24T15:22:37.299Z,613.00
2023-02-24T15:23:37.298Z,612.00
2023-02-24T15:24:37.307Z,610.00
2023-02-24T15:25:42.852Z,610.00
2023-02-24T15:26:38.289Z,610.00
2023-02-24T15:27:37.280Z,607.00
2023-02-24T15:28:37.249Z,607.00
2023-02-24T15:29:37.267Z,607.00
2023-02-24T15:30:37.302Z,608.00
2023-02-24T15:31:37.431Z,607.00
2023-02-24T15:32:37.399Z,606.00
2023-02-24T15:33:37.232Z,602.00
2023-02-24T15:34:37.230Z,602.00
2023-02-24T15:35:37.236Z,601.00
2023-02-24T15:36:37.229Z,602.00
2023-02-24T15:37:37.210Z,601.00
2023-02-24T15:38:37.205Z,599.00
2023-02-24T15:39:37.160Z,597.00
2023-02-24T15:40:37.183Z,596.00
2023-02-24T15:41:37.171Z,597.00
2023-02-24T15:42:37.143Z,598.00
2023-02-24T15:43:37.182Z,598.00
2023-02-24T15:44:37.139Z,596.00
2023-02-24T15:45:37.120Z,597.00
2023-02-24T15:46:37.177Z,597.00
2023-02-24T15:47:37.132Z,598.00
2023-02-24T15:48:37.108Z,596.00
2023-02-24T15:49:37.090Z,595.00
2023-02-24T15:50:37.069Z,594.00
2023-02-24T15:51:37.133Z,593.00
2023-02-24T15:52:37.076Z,594.00
2023-02-24T15:53:37.085Z,594.00
2023-02-24T15:54:37.090Z,592.00
2023-02-24T15:55:37.066Z,591.00
2023-02-24T15:56:37.074Z,589.00
2023-02-24T15:57:37.065Z,589.00
2023-02-24T15:58:37.057Z,588.00
2023-02-24T15:59:37.085Z,588.00
2023-02-24T16:00:37.117Z,586.00
2023-02-24T16:01:37.112Z,587.00
2023-02-24T16:02:37.112Z,585.00
2023-02-24T16:03:37.147Z,588.00
2023-02-24T16:04:37.127Z,591.00
2023-02-24T16:05:37.119Z,589.00
2023-02-24T16:06:37.144Z,586.00
2023-02-24T16:07:37.186Z,585.00
2023-02-24T16:08:37.193Z,583.00
2023-02-24T16:09:37.203Z,582.00
2023-02-24T16:10:37.198Z,578.00
2023-02-24T16:11:37.205Z,576.00
2023-02-24T16:12:37.206Z,576.00
2023-02-24T16:13:37.231Z,575.00
2023-02-24T16:14:37.242Z,575.00
2023-02-24T16:15:37.258Z,576.00
2023-02-24T16:16:37.380Z,572.00
2023-02-24T16:17:37.312Z,571.00
2023-02-24T16:18:37.268Z,573.00
2023-02-24T16:19:37.348Z,572.00
2023-02-24T16:20:37.314Z,572.00
2023-02-24T16:21:37.307Z,571.00
2023-02-24T16:22:37.361Z,574.00
2023-02-24T16:23:37.340Z,572.00
2023-02-24T16:24:37.379Z,569.00
2023-02-24T16:25:37.384Z,569.00
2023-02-24T16:26:37.398Z,569.00
2023-02-24T16:27:37.423Z,570.00
2023-02-24T16:28:37.402Z,569.00
2023-02-24T16:29:37.486Z,569.00
2023-02-24T16:30:37.548Z,569.00
2023-02-24T16:31:37.769Z,569.00
2023-02-24T16:32:37.539Z,567.00
2023-02-24T16:33:53.232Z,563.00
2023-02-24T16:34:38.509Z,561.00
2023-02-24T16:35:37.499Z,561.00
2023-02-24T16:36:37.471Z,560.00
2023-02-24T16:37:37.476Z,558.00
2023-02-24T16:38:37.466Z,555.00
2023-02-24T16:39:37.457Z,556.00
2023-02-24T16:40:37.477Z,555.00
2023-02-24T16:41:37.449Z,555.00
2023-02-24T16:42:37.469Z,554.00
2023-02-24T16:43:37.433Z,551.00
2023-02-24T16:44:37.425Z,551.00
2023-02-24T16:45:37.450Z,553.00
2023-02-24T16:46:37.430Z,553.00
2023-02-24T16:47:37.393Z,550.00
2023-02-24T16:48:37.419Z,548.00
2023-02-24T16:49:37.390Z,550.00
2023-02-24T16:50:37.371Z,550.00
2023-02-24T16:51:37.355Z,550.00
2023-02-24T16:52:37.336Z,551.00
2023-02-24T16:53:37.341Z,550.00
2023-02-24T16:54:37.358Z,549.00
2023-02-24T16:55:37.364Z,548.00
2023-02-24T16:56:37.335Z,548.00
2023-02-24T16:57:37.342Z,545.00
2023-02-24T16:58:37.323Z,547.00
2023-02-24T16:59:37.287Z,547.00
2023-02-24T17:00:37.328Z,546.00
2023-02-24T17:01:37.442Z,543.00
2023-02-24T17:02:37.338Z,540.00
2023-02-24T17:03:37.353Z,539.00
2023-02-24T17:04:37.373Z,538.00
2023-02-24T17:05:37.395Z,538.00
2023-02-24T17:06:37.448Z,539.00
2023-02-24T17:07:37.415Z,538.00
2023-02-24T17:08:37.425Z,538.00
2023-02-24T17:09:37.433Z,536.00
2023-02-24T17:10:37.447Z,534.00
2023-02-24T17:11:37.503Z,534.00
2023-02-24T17:12:37.495Z,533.00
2023-02-24T17:13:37.499Z,533.00
2023-02-24T17:14:37.528Z,534.00
2023-02-24T17:15:37.529Z,533.00